Terminal Aerodrome Forecast
Issued by NWS

Home | Current Version | Previous Version | Graphics & Text | Print | Product List | Glossary On
Versions: 1 2 3 4 5 6 7 8 9 10 11 12 13 14 15 16
073
FTUS42 KMHX 130538
TAFPGV
TAF
KPGV 130538Z 1306/1406 27004KT P6SM OVC070
     FM130800 31006KT P6SM SKC
     FM131400 32012G21KT P6SM SKC
     FM132300 34005KT P6SM SKC
      AMD LTD TO CLD VIS AND WIND=

USA.gov is the U.S. government's official web portal to all federal, state and local government web resources and services.